createdAt,value
2023-02-20T04:45:59.100Z,91.80
2023-02-20T04:48:26.095Z,91.80
2023-02-20T04:50:53.576Z,91.70
2023-02-20T04:53:20.477Z,91.80
2023-02-20T04:55:47.407Z,92.20
2023-02-20T04:58:14.433Z,92.50
2023-02-20T05:00:41.378Z,91.80
2023-02-20T05:03:08.266Z,92.00
2023-02-20T05:05:35.154Z,92.10
2023-02-20T05:08:04.080Z,91.90
2023-02-20T05:10:32.278Z,92.00
2023-02-20T05:12:59.571Z,92.00
2023-02-20T05:15:27.599Z,92.10
2023-02-20T05:17:54.828Z,92.00
2023-02-20T05:20:41.728Z,92.00
2023-02-20T05:23:08.719Z,92.00
2023-02-20T05:25:35.682Z,91.90
2023-02-20T05:28:02.653Z,92.00
2023-02-20T05:30:29.702Z,92.00
2023-02-20T05:32:56.634Z,92.20
2023-02-20T05:35:23.586Z,92.00
2023-02-20T05:37:50.531Z,92.00
2023-02-20T05:40:17.435Z,92.10
2023-02-20T05:42:44.330Z,91.70
2023-02-20T05:45:12.455Z,91.70
2023-02-20T05:47:39.333Z,91.40
2023-02-20T05:50:06.679Z,91.40
2023-02-20T05:52:33.585Z,91.40
2023-02-20T05:55:00.499Z,91.50
2023-02-20T05:57:27.423Z,92.20
2023-02-20T05:59:54.358Z,92.40
2023-02-20T06:02:21.287Z,92.40
2023-02-20T06:04:48.298Z,92.20
2023-02-20T06:07:15.251Z,91.80
2023-02-20T06:09:43.402Z,91.70
2023-02-20T06:12:10.410Z,91.70
2023-02-20T06:14:37.350Z,91.70
2023-02-20T06:17:04.256Z,91.60
2023-02-20T06:19:31.176Z,91.50
2023-02-20T06:21:58.910Z,91.60
2023-02-20T06:24:25.899Z,91.60
2023-02-20T06:26:53.135Z,91.50
2023-02-20T06:29:20.137Z,91.50
2023-02-20T06:31:47.370Z,91.60
2023-02-20T06:34:14.538Z,91.80
2023-02-20T06:36:41.830Z,92.10
2023-02-20T06:39:10.344Z,92.00
2023-02-20T06:41:37.238Z,92.10
2023-02-20T06:44:05.396Z,91.70
2023-02-20T06:46:32.450Z,91.70
2023-02-20T06:48:59.805Z,91.60
2023-02-20T06:51:30.632Z,91.80
2023-02-20T06:53:58.262Z,91.70
2023-02-20T06:56:26.632Z,91.60
2023-02-20T06:58:54.148Z,91.40
2023-02-20T07:01:21.980Z,91.30
2023-02-20T07:03:49.723Z,91.50
2023-02-20T07:06:17.317Z,91.40
2023-02-20T07:08:44.428Z,91.50
2023-02-20T07:11:11.967Z,91.70
2023-02-20T07:13:38.979Z,91.70
2023-02-20T07:16:06.046Z,91.70
2023-02-20T07:18:32.983Z,91.80
2023-02-20T07:20:59.959Z,91.90
2023-02-20T07:23:27.065Z,92.00
2023-02-20T07:25:54.068Z,92.20
2023-02-20T07:28:21.468Z,92.40
2023-02-20T07:30:49.237Z,92.40
2023-02-20T07:33:17.163Z,92.30
2023-02-20T07:35:44.376Z,92.20
2023-02-20T07:38:11.707Z,92.20
2023-02-20T07:40:40.102Z,92.20
2023-02-20T07:43:07.293Z,92.30
2023-02-20T07:45:34.331Z,92.30
2023-02-20T07:48:01.273Z,92.60
2023-02-20T07:50:28.216Z,92.90
2023-02-20T07:52:55.200Z,93.10
2023-02-20T07:55:22.107Z,92.90
2023-02-20T07:57:50.338Z,92.90
2023-02-20T08:00:18.277Z,92.90
2023-02-20T08:02:45.734Z,93.20
2023-02-20T08:05:12.707Z,93.00
2023-02-20T08:07:43.859Z,93.10
2023-02-20T08:10:10.833Z,93.10
2023-02-20T08:12:37.873Z,93.00
2023-02-20T08:15:04.843Z,93.10
2023-02-20T08:17:45.291Z,93.10
2023-02-20T08:20:14.297Z,93.10
2023-02-20T08:22:42.151Z,93.10
2023-02-20T08:25:09.383Z,93.10
2023-02-20T08:27:39.071Z,93.10
2023-02-20T08:30:06.747Z,93.30
2023-02-20T08:32:33.851Z,93.40
2023-02-20T08:35:00.855Z,93.40
2023-02-20T08:37:27.858Z,93.60
2023-02-20T08:39:54.961Z,93.70
2023-02-20T08:42:21.922Z,93.80
2023-02-20T08:44:48.842Z,93.80
2023-02-20T08:47:18.879Z,93.80
2023-02-20T08:49:46.710Z,93.80
2023-02-20T08:52:13.835Z,93.90
2023-02-20T08:54:40.907Z,93.80
2023-02-20T08:57:07.806Z,94.20
2023-02-20T08:59:35.050Z,94.00
2023-02-20T09:02:02.010Z,94.10
2023-02-20T09:04:28.944Z,94.20
2023-02-20T09:06:55.905Z,94.50
2023-02-20T09:09:23.205Z,94.20
2023-02-20T09:11:50.127Z,94.40
2023-02-20T09:14:17.107Z,94.40
2023-02-20T09:16:44.034Z,94.50
2023-02-20T09:19:11.089Z,94.60
2023-02-20T09:21:38.109Z,94.70
2023-02-20T09:24:05.919Z,94.60
2023-02-20T09:26:32.860Z,94.60
2023-02-20T09:28:59.793Z,94.70
2023-02-20T09:31:26.830Z,94.70
2023-02-20T09:33:53.916Z,94.70
2023-02-20T09:36:20.883Z,94.80
2023-02-20T09:38:47.855Z,94.80
2023-02-20T09:41:40.855Z,95.10
2023-02-20T09:44:17.611Z,95.00
2023-02-20T09:46:45.916Z,95.10
2023-02-20T09:49:14.475Z,95.10
2023-02-20T09:51:56.216Z,94.90
2023-02-20T09:54:23.196Z,95.00
2023-02-20T09:56:51.953Z,95.00
2023-02-20T09:59:25.154Z,95.10
2023-02-20T10:01:53.823Z,95.30
2023-02-20T10:04:27.437Z,95.20
2023-02-20T10:07:00.059Z,95.40
2023-02-20T10:09:27.028Z,95.30
2023-02-20T10:12:08.772Z,95.40
2023-02-20T10:14:53.784Z,95.30
2023-02-20T10:17:29.206Z,95.40
2023-02-20T10:20:00.580Z,95.40
2023-02-20T10:22:27.488Z,95.50
2023-02-20T10:25:15.684Z,95.20
2023-02-20T10:27:42.612Z,95.10
2023-02-20T10:30:13.328Z,95.10
2023-02-20T10:32:52.955Z,94.90
2023-02-20T10:35:24.981Z,94.80
2023-02-20T10:37:54.389Z,94.80
2023-02-20T10:40:31.737Z,94.70
2023-02-20T10:43:16.785Z,95.00
2023-02-20T10:45:46.591Z,94.60
2023-02-20T10:48:15.649Z,94.40
2023-02-20T10:50:46.177Z,94.40
2023-02-20T10:53:26.340Z,94.40
2023-02-20T10:56:00.066Z,94.30
2023-02-20T10:58:36.426Z,94.30
2023-02-20T11:01:07.744Z,94.30
2023-02-20T11:03:39.418Z,94.20
2023-02-20T11:06:07.443Z,94.00
2023-02-20T11:08:34.409Z,94.00
2023-02-20T11:11:13.070Z,93.90
2023-02-20T11:13:40.231Z,93.90
2023-02-20T11:16:10.324Z,94.10
2023-02-20T11:18:38.586Z,94.20
2023-02-20T11:21:05.601Z,94.30
2023-02-20T11:23:35.406Z,94.40
2023-02-20T11:26:21.601Z,94.10
2023-02-20T11:29:04.414Z,93.90
2023-02-20T11:31:31.515Z,93.90
2023-02-20T11:34:00.698Z,93.70
2023-02-20T11:36:28.588Z,93.80
2023-02-20T11:38:59.556Z,93.70
2023-02-20T11:41:29.078Z,93.70
2023-02-20T11:44:05.094Z,93.80
2023-02-20T11:46:32.175Z,93.90
2023-02-20T11:48:59.564Z,93.60
2023-02-20T11:51:32.301Z,93.50
2023-02-20T11:54:09.277Z,93.50
2023-02-20T11:56:36.580Z,93.30
2023-02-20T11:59:22.219Z,93.50
2023-02-20T12:02:00.266Z,93.50
2023-02-20T12:04:28.041Z,93.60
2023-02-20T12:06:55.036Z,93.20
2023-02-20T12:09:28.092Z,93.20
2023-02-20T12:11:57.285Z,93.30
2023-02-20T12:14:24.862Z,93.10
2023-02-20T12:16:51.978Z,93.10
2023-02-20T12:19:19.008Z,93.00
2023-02-20T12:22:04.731Z,92.90
2023-02-20T12:24:31.679Z,93.20
2023-02-20T12:27:00.303Z,93.30
2023-02-20T12:29:30.069Z,93.10
2023-02-20T12:31:57.032Z,92.80
2023-02-20T12:34:32.795Z,92.60
2023-02-20T12:37:18.255Z,92.50
2023-02-20T12:39:57.565Z,92.50
2023-02-20T12:42:59.968Z,92.40
2023-02-20T12:45:38.825Z,92.30
2023-02-20T12:48:19.396Z,92.10
2023-02-20T12:50:52.687Z,92.30
2023-02-20T12:53:35.107Z,92.20
2023-02-20T12:56:04.792Z,92.20
2023-02-20T12:58:46.790Z,92.20
2023-02-20T13:01:15.204Z,92.10
2023-02-20T13:04:00.993Z,91.90
2023-02-20T13:06:38.790Z,91.70
2023-02-20T13:09:08.775Z,91.90
2023-02-20T13:11:54.356Z,92.10
2023-02-20T13:14:49.635Z,92.30
2023-02-20T13:17:37.501Z,92.20
2023-02-20T13:20:18.667Z,91.90
2023-02-20T13:23:35.712Z,91.70
2023-02-20T13:26:33.920Z,91.60
2023-02-20T13:32:22.911Z,91.60
2023-02-20T13:38:15.433Z,91.60
2023-02-20T13:40:53.436Z,91.20
2023-02-20T13:43:31.461Z,91.30
2023-02-20T13:46:04.144Z,91.50
2023-02-20T13:48:51.783Z,91.30
2023-02-20T13:51:21.865Z,91.20
2023-02-20T13:54:02.707Z,91.20
2023-02-20T13:56:41.977Z,91.20
2023-02-20T13:59:16.573Z,91.40
2023-02-20T14:02:06.436Z,91.10
2023-02-20T14:04:40.379Z,91.30
2023-02-20T14:07:27.013Z,91.40
2023-02-20T14:10:24.686Z,91.50
2023-02-20T14:13:12.121Z,91.30
2023-02-20T14:15:53.136Z,91.10
2023-02-20T14:18:36.321Z,91.10
2023-02-20T14:21:46.223Z,91.20
2023-02-20T14:24:25.144Z,91.20
2023-02-20T14:26:58.643Z,91.10
2023-02-20T14:29:42.063Z,91.00
2023-02-20T14:32:16.607Z,91.10
2023-02-20T14:35:19.165Z,91.20
2023-02-20T14:38:28.871Z,91.00
2023-02-20T14:41:13.836Z,91.00
2023-02-20T14:43:55.887Z,91.30
2023-02-20T14:46:39.144Z,91.50
2023-02-20T14:49:12.754Z,91.40
2023-02-20T14:51:56.203Z,91.10
2023-02-20T14:57:17.911Z,90.90
2023-02-20T15:00:08.692Z,90.70
2023-02-20T15:02:46.128Z,90.70
2023-02-20T15:05:37.733Z,90.70
2023-02-20T15:08:16.698Z,90.80
2023-02-20T15:10:49.105Z,90.90
2023-02-20T15:13:18.919Z,91.00
2023-02-20T15:16:06.644Z,91.10
2023-02-20T15:18:55.672Z,91.00
2023-02-20T15:21:40.767Z,90.70
2023-02-20T15:24:29.918Z,90.80
2023-02-20T15:27:11.644Z,90.80
2023-02-20T15:29:43.643Z,90.80
2023-02-20T15:32:26.682Z,90.80
2023-02-20T15:34:58.684Z,90.70
2023-02-20T15:37:43.304Z,90.40
2023-02-20T15:40:20.582Z,90.60
2023-02-20T15:42:57.023Z,90.50
2023-02-20T15:45:32.614Z,90.70
2023-02-20T15:48:05.307Z,90.40
2023-02-20T15:50:56.479Z,90.50
2023-02-20T15:53:33.378Z,90.50
2023-02-20T15:56:05.056Z,90.40
2023-02-20T15:58:36.796Z,90.40
2023-02-20T16:01:05.115Z,90.70
2023-02-20T16:03:50.561Z,91.00
2023-02-20T16:06:26.552Z,90.70
2023-02-20T16:08:59.220Z,90.60
2023-02-20T16:11:39.737Z,90.80
2023-02-20T16:14:19.092Z,91.00
2023-02-20T16:16:47.672Z,91.10
2023-02-20T16:19:16.671Z,91.10
2023-02-20T16:21:56.909Z,91.10
2023-02-20T16:24:25.495Z,91.20
2023-02-20T16:26:52.547Z,91.40
2023-02-20T16:29:20.730Z,91.20
2023-02-20T16:31:53.951Z,91.40
2023-02-20T16:34:27.996Z,91.40
2023-02-20T16:36:54.958Z,91.30
2023-02-20T16:39:26.984Z,91.30
2023-02-20T16:41:54.777Z,91.10
2023-02-20T16:44:29.624Z,91.10
2023-02-20T16:46:56.559Z,91.00
2023-02-20T16:49:23.489Z,91.20
2023-02-20T16:51:58.988Z,91.20
2023-02-20T16:54:25.946Z,91.30
2023-02-20T16:56:52.876Z,91.30
2023-02-20T16:59:21.912Z,91.30
2023-02-20T17:01:51.423Z,91.40
2023-02-20T17:04:19.717Z,91.30
2023-02-20T17:06:47.060Z,91.10
2023-02-20T17:09:14.021Z,91.30
2023-02-20T17:11:40.974Z,91.20
2023-02-20T17:14:07.935Z,91.20
2023-02-20T17:16:34.856Z,91.50
2023-02-20T17:19:01.806Z,91.30
2023-02-20T17:21:28.800Z,91.30
2023-02-20T17:23:55.705Z,91.30
2023-02-20T17:26:22.702Z,91.40
2023-02-20T17:28:49.601Z,91.50
2023-02-20T17:31:16.741Z,91.70
2023-02-20T17:33:43.877Z,91.60
2023-02-20T17:36:10.825Z,91.60
2023-02-20T17:38:41.347Z,91.40
2023-02-20T17:41:08.287Z,91.40
2023-02-20T17:43:36.073Z,91.60
2023-02-20T17:46:03.151Z,91.30
2023-02-20T17:48:30.072Z,91.30
2023-02-20T17:50:57.007Z,91.20
2023-02-20T17:53:23.972Z,91.40
2023-02-20T17:55:50.928Z,91.30
2023-02-20T17:58:17.862Z,91.40
2023-02-20T18:00:45.618Z,91.30
2023-02-20T18:03:12.609Z,91.40
2023-02-20T18:05:39.510Z,91.40
2023-02-20T18:08:06.467Z,91.40
2023-02-20T18:10:33.472Z,91.30
2023-02-20T18:13:03.329Z,91.30
2023-02-20T18:15:34.566Z,91.20
2023-02-20T18:18:02.237Z,91.30
2023-02-20T18:20:29.283Z,91.30
2023-02-20T18:22:57.212Z,91.30
2023-02-20T18:25:38.049Z,91.40
2023-02-20T18:28:07.292Z,91.40
2023-02-20T18:30:34.578Z,91.40
2023-02-20T18:33:01.866Z,91.40
2023-02-20T18:35:28.852Z,91.30
2023-02-20T18:37:55.800Z,91.40
2023-02-20T18:40:24.076Z,91.40
2023-02-20T18:42:51.563Z,91.40
2023-02-20T18:45:19.212Z,91.50
2023-02-20T18:47:50.729Z,91.60
2023-02-20T18:50:18.229Z,91.60
2023-02-20T18:52:48.816Z,91.60
2023-02-20T18:55:20.121Z,91.40
2023-02-20T18:57:48.406Z,91.40
2023-02-20T19:00:38.648Z,91.40
2023-02-20T19:03:05.596Z,91.30
2023-02-20T19:05:32.749Z,91.40
2023-02-20T19:08:00.259Z,91.40
2023-02-20T19:10:27.462Z,91.60
2023-02-20T19:12:54.654Z,91.60
2023-02-20T19:15:24.941Z,91.50
2023-02-20T19:17:52.169Z,91.70
2023-02-20T19:20:25.739Z,91.90
2023-02-20T19:22:54.355Z,92.10
2023-02-20T19:25:22.118Z,91.90
2023-02-20T19:27:49.375Z,92.00
2023-02-20T19:30:16.865Z,92.20
2023-02-20T19:32:44.222Z,91.80
2023-02-20T19:35:12.264Z,91.80
2023-02-20T19:37:39.213Z,91.80
2023-02-20T19:40:06.930Z,91.80
2023-02-20T19:42:34.457Z,91.60
2023-02-20T19:45:01.600Z,91.60
2023-02-20T19:47:28.761Z,91.50
2023-02-20T19:49:55.751Z,91.60
2023-02-20T19:52:22.688Z,91.80
2023-02-20T19:54:49.619Z,91.80
2023-02-20T19:57:16.595Z,91.80
2023-02-20T19:59:43.741Z,91.70
2023-02-20T20:02:11.039Z,91.50
2023-02-20T20:04:38.111Z,91.50
2023-02-20T20:07:05.462Z,91.50
2023-02-20T20:09:37.688Z,91.50
2023-02-20T20:12:26.230Z,91.40
2023-02-20T20:14:53.318Z,91.30
2023-02-20T20:17:20.345Z,91.50
2023-02-20T20:19:58.451Z,91.40
2023-02-20T20:22:26.780Z,91.50
2023-02-20T20:24:53.675Z,91.60
2023-02-20T20:27:20.967Z,91.60
2023-02-20T20:29:50.984Z,91.70
2023-02-20T20:32:19.391Z,91.90
2023-02-20T20:34:52.512Z,92.00
2023-02-20T20:37:20.507Z,91.90
2023-02-20T20:39:47.477Z,91.90
2023-02-20T20:42:15.900Z,91.70
2023-02-20T20:44:42.826Z,92.00
2023-02-20T20:47:09.906Z,91.80
2023-02-20T20:49:37.571Z,91.70
2023-02-20T20:52:04.582Z,91.50
2023-02-20T20:54:31.664Z,91.60
2023-02-20T20:56:58.775Z,91.70
2023-02-20T20:59:25.879Z,91.80
2023-02-20T21:01:52.840Z,91.70
2023-02-20T21:04:19.921Z,91.60
2023-02-20T21:06:46.911Z,91.60
2023-02-20T21:09:13.837Z,91.40
2023-02-20T21:11:40.901Z,91.30
2023-02-20T21:14:08.140Z,91.20
2023-02-20T21:16:35.044Z,91.30
2023-02-20T21:19:02.010Z,91.30
2023-02-20T21:21:29.978Z,91.30
2023-02-20T21:23:56.899Z,91.30
2023-02-20T21:26:24.238Z,91.30
2023-02-20T21:28:51.491Z,91.30
2023-02-20T21:31:20.621Z,91.30
2023-02-20T21:33:51.596Z,91.20
2023-02-20T21:36:18.743Z,91.20
2023-02-20T21:38:45.738Z,91.10
2023-02-20T21:41:35.623Z,91.10
2023-02-20T21:44:21.122Z,91.00
2023-02-20T21:46:51.068Z,90.90
2023-02-20T21:49:18.241Z,91.10
2023-02-20T21:51:45.361Z,91.10
2023-02-20T21:54:12.785Z,91.30
2023-02-20T21:56:39.676Z,91.20
2023-02-20T21:59:06.568Z,91.20
2023-02-20T22:01:34.999Z,91.10
2023-02-20T22:04:02.351Z,90.90
2023-02-20T22:06:29.364Z,90.90
2023-02-20T22:09:14.956Z,91.30
2023-02-20T22:12:00.359Z,91.30
2023-02-20T22:14:46.337Z,91.20
2023-02-20T22:17:32.219Z,91.20
2023-02-20T22:20:18.221Z,91.10
2023-02-20T22:23:03.653Z,91.10
2023-02-20T22:25:49.011Z,91.30
2023-02-20T22:28:35.108Z,91.30
2023-02-20T22:31:21.019Z,91.20
2023-02-20T22:34:06.655Z,91.20
2023-02-20T22:36:52.172Z,91.30
2023-02-20T22:39:38.090Z,91.50
2023-02-20T22:42:34.328Z,91.70
2023-02-20T22:45:20.994Z,91.70
2023-02-20T22:48:06.559Z,91.60
2023-02-20T22:50:52.047Z,91.70
2023-02-20T22:53:37.614Z,91.70
2023-02-20T22:56:23.158Z,91.60
2023-02-20T22:59:08.761Z,91.50
2023-02-20T23:01:54.331Z,91.50
2023-02-20T23:04:39.901Z,91.30
2023-02-20T23:07:25.311Z,91.20
2023-02-20T23:10:10.756Z,91.20
2023-02-20T23:12:56.139Z,91.10
2023-02-20T23:15:41.574Z,91.30
2023-02-20T23:18:26.870Z,91.10
2023-02-20T23:21:12.474Z,91.10
2023-02-20T23:23:58.099Z,91.20
2023-02-20T23:26:43.598Z,91.00
2023-02-20T23:29:29.012Z,91.20
2023-02-20T23:32:14.424Z,91.10
2023-02-20T23:34:59.990Z,91.00
2023-02-20T23:37:45.293Z,90.90
2023-02-20T23:40:36.505Z,90.90
2023-02-20T23:43:23.643Z,90.90
2023-02-20T23:46:09.116Z,91.20
2023-02-20T23:48:54.585Z,91.00
2023-02-20T23:51:40.045Z,91.20
2023-02-20T23:54:25.395Z,91.20
2023-02-20T23:57:11.268Z,91.00
2023-02-20T23:59:56.829Z,90.80
